createdAt,value
2018-07-23T00:01:15.136Z,56.83
2018-07-23T00:03:43.494Z,53.50
2018-07-23T00:06:11.882Z,56.07
2018-07-23T00:08:40.163Z,58.37
2018-07-23T00:11:08.481Z,59.10
2018-07-23T00:13:36.744Z,57.87
2018-07-23T00:16:05.104Z,58.07
2018-07-23T00:18:33.301Z,58.93
2018-07-23T00:21:01.747Z,57.73
2018-07-23T00:23:30.049Z,57.67
2018-07-23T00:25:58.335Z,55.23
2018-07-23T00:28:26.670Z,58.80
2018-07-23T00:30:54.969Z,53.63
2018-07-23T00:33:23.281Z,59.50
2018-07-23T00:35:51.611Z,62.07
2018-07-23T00:38:19.938Z,60.33
2018-07-23T00:40:48.236Z,60.87
2018-07-23T00:43:16.611Z,65.80
2018-07-23T00:45:45.006Z,66.80
2018-07-23T00:48:13.279Z,65.47
2018-07-23T00:50:41.537Z,61.50
2018-07-23T00:53:09.797Z,54.60
2018-07-23T00:55:38.036Z,53.63
2018-07-23T00:58:06.345Z,54.13
2018-07-23T01:00:34.564Z,52.17
2018-07-23T01:03:05.671Z,56.00
2018-07-23T01:05:34.723Z,56.77
2018-07-23T01:08:03.124Z,55.77
2018-07-23T01:10:31.482Z,58.03
2018-07-23T01:12:59.710Z,55.43
2018-07-23T01:15:28.110Z,54.27
2018-07-23T01:17:56.367Z,53.70
2018-07-23T01:20:24.743Z,57.30
2018-07-23T01:22:53.082Z,55.83
2018-07-23T01:25:21.313Z,54.33
2018-07-23T01:27:49.710Z,53.43
2018-07-23T01:30:18.007Z,58.40
2018-07-23T01:32:46.327Z,58.43
2018-07-23T01:35:14.687Z,55.90
2018-07-23T01:37:42.992Z,58.57
2018-07-23T01:40:11.309Z,56.70
2018-07-23T01:42:39.626Z,57.60
2018-07-23T01:45:08.013Z,58.90
2018-07-23T01:47:36.290Z,54.30
2018-07-23T01:50:04.660Z,57.03
2018-07-23T01:52:32.947Z,61.47
2018-07-23T01:55:01.533Z,62.07
2018-07-23T01:57:29.804Z,62.50
2018-07-23T01:59:58.197Z,59.20
2018-07-23T02:02:26.600Z,52.20
2018-07-23T02:04:54.934Z,61.10
2018-07-23T02:07:23.256Z,63.97
2018-07-23T02:09:51.554Z,60.97
2018-07-23T02:12:19.974Z,61.03
2018-07-23T02:14:48.259Z,62.83
2018-07-23T02:17:16.584Z,61.90
2018-07-23T02:19:44.897Z,63.70
2018-07-23T02:22:13.379Z,66.63
2018-07-23T02:24:41.679Z,66.77
2018-07-23T02:27:09.954Z,64.90
2018-07-23T02:29:38.299Z,59.57
2018-07-23T02:32:06.564Z,68.40
2018-07-23T02:34:34.930Z,66.50
2018-07-23T02:37:03.205Z,67.67
2018-07-23T02:39:31.538Z,62.07
2018-07-23T02:41:59.797Z,59.77
2018-07-23T02:44:28.490Z,63.67
2018-07-23T02:46:57.082Z,61.20
2018-07-23T02:49:25.333Z,58.20
2018-07-23T02:51:53.625Z,63.23
2018-07-23T02:54:22.218Z,58.33
2018-07-23T02:56:50.604Z,67.10
2018-07-23T02:59:18.898Z,63.90
2018-07-23T03:01:47.175Z,64.27
2018-07-23T03:04:15.655Z,58.80
2018-07-23T03:06:43.977Z,73.00
2018-07-23T03:09:12.282Z,67.37
2018-07-23T03:11:40.587Z,69.77
2018-07-23T03:14:08.945Z,67.00
2018-07-23T03:16:38.684Z,61.97
2018-07-23T03:19:06.937Z,61.83
2018-07-23T03:21:35.249Z,63.77
2018-07-23T03:24:03.598Z,58.00
2018-07-23T03:26:31.887Z,57.70
2018-07-23T03:29:00.223Z,68.57
2018-07-23T03:31:28.549Z,64.00
2018-07-23T03:33:58.004Z,57.10
2018-07-23T03:36:26.374Z,61.27
2018-07-23T03:38:54.657Z,58.33
2018-07-23T03:41:23.037Z,57.03
2018-07-23T03:43:51.333Z,53.33
2018-07-23T03:46:19.604Z,55.07
2018-07-23T03:48:47.966Z,55.07
2018-07-23T03:51:16.321Z,52.90
2018-07-23T03:53:44.671Z,50.83
2018-07-23T03:56:12.918Z,48.60
2018-07-23T03:58:41.347Z,51.10
2018-07-23T04:01:09.647Z,49.63
2018-07-23T04:03:38.224Z,55.37
2018-07-23T04:06:06.849Z,59.63
2018-07-23T04:08:35.063Z,55.80
2018-07-23T04:11:03.429Z,51.20
2018-07-23T04:13:31.961Z,58.30
2018-07-23T04:16:00.363Z,51.60
2018-07-23T04:18:28.657Z,58.50
2018-07-23T04:20:56.981Z,58.00
2018-07-23T04:23:25.253Z,61.80
2018-07-23T04:25:53.531Z,57.70
2018-07-23T04:28:22.010Z,59.90
2018-07-23T04:30:50.302Z,51.63
2018-07-23T04:33:18.658Z,45.63
2018-07-23T04:35:46.939Z,54.47
2018-07-23T04:38:15.237Z,53.83
2018-07-23T04:40:44.198Z,49.70
2018-07-23T04:43:12.491Z,50.47
2018-07-23T04:45:40.758Z,53.30
2018-07-23T04:48:09.127Z,53.53
2018-07-23T04:50:37.501Z,50.37
2018-07-23T04:53:06.890Z,49.43
2018-07-23T04:55:35.151Z,47.80
2018-07-23T04:58:03.511Z,40.47
2018-07-23T05:00:31.811Z,48.57
2018-07-23T05:03:00.470Z,36.90
2018-07-23T05:05:28.723Z,41.67
2018-07-23T05:07:58.654Z,37.90
2018-07-23T05:10:26.974Z,35.73
2018-07-23T05:12:55.356Z,36.13
2018-07-23T05:15:23.713Z,37.40
2018-07-23T05:17:51.973Z,33.63
2018-07-23T05:20:20.254Z,32.00
2018-07-23T05:22:48.682Z,30.57
2018-07-23T05:25:17.080Z,31.63
2018-07-23T05:27:45.421Z,28.63
2018-07-23T05:30:13.775Z,27.30
2018-07-23T05:32:42.140Z,27.00
2018-07-23T05:35:10.530Z,27.80
2018-07-23T05:37:40.085Z,23.03
2018-07-23T05:40:08.398Z,23.90
2018-07-23T05:42:36.662Z,23.80
2018-07-23T05:45:05.551Z,24.57
2018-07-23T05:47:33.846Z,22.77
2018-07-23T05:50:02.162Z,24.97
2018-07-23T05:52:30.538Z,22.03
2018-07-23T05:54:58.833Z,22.03
2018-07-23T05:57:27.113Z,27.50
2018-07-23T05:59:55.417Z,23.47
2018-07-23T06:02:23.781Z,30.37
2018-07-23T06:04:52.068Z,39.20
2018-07-23T06:07:20.374Z,23.07
2018-07-23T06:09:48.641Z,26.63
2018-07-23T06:12:16.914Z,25.23
2018-07-23T06:14:45.299Z,33.83
2018-07-23T06:17:13.751Z,26.10
2018-07-23T06:19:42.049Z,25.70
2018-07-23T06:22:10.349Z,26.50
2018-07-23T06:24:38.700Z,26.70
2018-07-23T06:27:07.043Z,21.27
2018-07-23T06:29:35.284Z,22.60
2018-07-23T06:32:03.593Z,45.87
2018-07-23T06:34:31.851Z,36.07
2018-07-23T06:37:00.117Z,24.93
2018-07-23T06:39:28.560Z,22.87
2018-07-23T06:41:56.883Z,33.73
2018-07-23T06:44:25.241Z,23.90
2018-07-23T06:46:53.568Z,22.30
2018-07-23T06:49:21.915Z,25.57
2018-07-23T06:51:50.314Z,22.50
2018-07-23T06:54:18.575Z,23.97
2018-07-23T06:56:46.982Z,30.30
2018-07-23T06:59:15.339Z,20.43
2018-07-23T07:01:43.589Z,20.40
2018-07-23T07:04:11.805Z,35.23
2018-07-23T07:06:40.219Z,25.50
2018-07-23T07:09:09.858Z,27.10
2018-07-23T07:11:38.197Z,23.83
2018-07-23T07:14:07.055Z,34.53
2018-07-23T07:16:35.281Z,21.83
2018-07-23T07:19:03.592Z,20.60
2018-07-23T07:21:31.953Z,21.63
2018-07-23T07:24:00.289Z,25.67
2018-07-23T07:26:28.590Z,16.83
2018-07-23T07:28:56.836Z,20.27
2018-07-23T07:31:25.130Z,38.47
2018-07-23T07:33:53.389Z,22.90
2018-07-23T07:36:21.711Z,21.03
2018-07-23T07:38:50.029Z,26.90
2018-07-23T07:41:18.410Z,19.73
2018-07-23T07:43:46.683Z,21.40
2018-07-23T07:46:14.992Z,23.90
2018-07-23T07:48:43.260Z,31.70
2018-07-23T07:51:11.652Z,18.83
2018-07-23T07:53:39.955Z,18.30
2018-07-23T07:56:08.314Z,16.37
2018-07-23T07:58:36.574Z,28.73
2018-07-23T08:01:04.945Z,35.30
2018-07-23T08:03:33.291Z,20.83
2018-07-23T08:06:01.568Z,19.37
2018-07-23T08:08:30.851Z,29.73
2018-07-23T08:10:59.143Z,20.97
2018-07-23T08:13:27.555Z,33.30
2018-07-23T08:15:55.844Z,27.73
2018-07-23T08:18:24.130Z,35.37
2018-07-23T08:20:52.447Z,34.37
2018-07-23T08:23:20.761Z,19.57
2018-07-23T08:25:49.000Z,18.90
2018-07-23T08:28:17.267Z,23.73
2018-07-23T08:30:45.556Z,29.90
2018-07-23T08:33:13.826Z,35.47
2018-07-23T08:35:42.136Z,18.50
2018-07-23T08:38:10.420Z,26.17
2018-07-23T08:40:38.671Z,29.53
2018-07-23T08:43:07.203Z,21.30
2018-07-23T08:45:35.470Z,33.40
2018-07-23T08:48:03.735Z,26.07
2018-07-23T08:50:32.073Z,23.00
2018-07-23T08:53:00.400Z,30.73
2018-07-23T08:55:28.807Z,17.50
2018-07-23T08:57:57.310Z,25.53
2018-07-23T09:00:25.678Z,23.27
2018-07-23T09:02:54.063Z,18.83
2018-07-23T09:05:22.399Z,29.97
2018-07-23T09:07:50.722Z,20.80
2018-07-23T09:10:19.123Z,16.20
2018-07-23T09:12:47.426Z,26.07
2018-07-23T09:15:15.744Z,32.97
2018-07-23T09:17:44.077Z,20.87
2018-07-23T09:20:12.378Z,19.73
2018-07-23T09:22:40.627Z,34.87
2018-07-23T09:25:08.950Z,24.90
2018-07-23T09:27:37.218Z,19.00
2018-07-23T09:30:06.573Z,18.00
2018-07-23T09:32:34.912Z,18.27
2018-07-23T09:35:03.340Z,17.33
2018-07-23T09:37:31.675Z,28.33
2018-07-23T09:39:59.945Z,21.70
2018-07-23T09:42:28.261Z,28.83
2018-07-23T09:44:56.771Z,30.27
2018-07-23T09:47:25.062Z,29.53
2018-07-23T09:49:53.331Z,25.23
2018-07-23T09:52:21.591Z,30.03
2018-07-23T09:54:49.885Z,32.90
2018-07-23T09:57:18.283Z,30.43
2018-07-23T09:59:46.539Z,26.47
2018-07-23T10:02:14.851Z,23.60
2018-07-23T10:04:43.172Z,17.90
2018-07-23T10:07:11.434Z,23.30
2018-07-23T10:09:39.733Z,18.93
2018-07-23T10:12:08.155Z,21.07
2018-07-23T10:14:36.484Z,24.40
2018-07-23T10:17:04.983Z,17.43
2018-07-23T10:19:33.343Z,23.23
2018-07-23T10:22:01.673Z,24.47
2018-07-23T10:24:29.916Z,26.20
2018-07-23T10:26:58.178Z,18.70
2018-07-23T10:29:26.538Z,16.73
2018-07-23T10:31:54.846Z,24.30
2018-07-23T10:34:23.150Z,19.63
2018-07-23T10:36:51.459Z,14.30
2018-07-23T10:39:19.780Z,16.00
2018-07-23T10:41:48.064Z,15.87
2018-07-23T10:44:16.367Z,16.60
2018-07-23T10:46:44.760Z,15.90
2018-07-23T10:49:13.133Z,14.77
2018-07-23T10:51:41.445Z,15.40
2018-07-23T10:54:09.788Z,12.63
2018-07-23T10:56:38.204Z,15.63
2018-07-23T10:59:06.563Z,15.10
2018-07-23T11:01:34.857Z,13.17
2018-07-23T11:04:03.234Z,13.40
2018-07-23T11:06:31.513Z,13.93
2018-07-23T11:08:59.895Z,13.80
2018-07-23T11:11:28.196Z,17.43
2018-07-23T11:13:56.520Z,14.17
2018-07-23T11:16:24.779Z,15.03
2018-07-23T11:18:53.408Z,13.87
2018-07-23T11:21:21.745Z,14.27
2018-07-23T11:23:50.067Z,15.77
2018-07-23T11:26:18.451Z,12.90
2018-07-23T11:28:46.735Z,12.40
2018-07-23T11:31:15.012Z,11.63
2018-07-23T11:33:43.300Z,12.23
2018-07-23T11:36:11.712Z,12.17
2018-07-23T11:38:40.004Z,11.70
2018-07-23T11:41:08.316Z,11.90
2018-07-23T11:43:36.602Z,12.83
2018-07-23T11:46:05.019Z,12.00
2018-07-23T11:48:33.353Z,11.53
2018-07-23T11:51:01.719Z,12.77
2018-07-23T11:53:30.111Z,11.63
2018-07-23T11:55:58.388Z,12.70
2018-07-23T11:58:26.905Z,13.20
2018-07-23T12:00:55.295Z,14.10
2018-07-23T12:03:23.619Z,13.87
2018-07-23T12:05:52.186Z,13.57
2018-07-23T12:08:20.514Z,10.80
2018-07-23T12:10:48.821Z,14.10
2018-07-23T12:13:17.140Z,12.40
2018-07-23T12:15:45.568Z,11.60
2018-07-23T12:18:13.859Z,12.73
2018-07-23T12:20:42.215Z,10.10
2018-07-23T12:23:10.552Z,11.07
2018-07-23T12:25:38.799Z,10.20
2018-07-23T12:28:07.252Z,9.77
2018-07-23T12:30:35.614Z,10.43
2018-07-23T12:33:04.099Z,10.20
2018-07-23T12:35:32.477Z,9.40
2018-07-23T12:38:02.523Z,11.23
2018-07-23T12:40:31.000Z,9.60
2018-07-23T12:42:59.327Z,9.40
2018-07-23T12:45:27.679Z,9.77
2018-07-23T12:47:56.031Z,9.87
2018-07-23T12:50:24.499Z,10.10
2018-07-23T12:52:52.904Z,9.77
2018-07-23T12:55:21.369Z,9.13
2018-07-23T12:57:50.275Z,8.07
2018-07-23T13:00:18.860Z,8.70
2018-07-23T13:02:47.463Z,8.30
2018-07-23T13:05:15.730Z,8.53
2018-07-23T13:07:44.011Z,8.30
2018-07-23T13:10:12.442Z,8.03
2018-07-23T13:12:40.742Z,7.80
2018-07-23T13:15:09.056Z,8.93
2018-07-23T13:17:37.589Z,9.77
2018-07-23T13:20:05.956Z,8.60
2018-07-23T13:22:34.369Z,9.00
2018-07-23T13:25:02.805Z,9.53
2018-07-23T13:27:31.282Z,8.23
2018-07-23T13:29:59.763Z,8.47
2018-07-23T13:32:28.255Z,7.37
2018-07-23T13:34:56.516Z,9.20
2018-07-23T13:37:25.010Z,8.37
2018-07-23T13:39:54.435Z,7.60
2018-07-23T13:42:22.760Z,8.17
2018-07-23T13:44:51.351Z,8.43
2018-07-23T13:47:19.595Z,8.80
2018-07-23T13:49:47.891Z,9.07
2018-07-23T13:52:16.126Z,9.53
2018-07-23T13:54:44.473Z,9.60
2018-07-23T13:57:12.795Z,8.50
2018-07-23T13:59:41.042Z,8.03
2018-07-23T14:02:09.642Z,9.80
2018-07-23T14:04:37.920Z,8.57
2018-07-23T14:07:06.217Z,8.70
2018-07-23T14:09:34.528Z,9.30
2018-07-23T14:12:02.802Z,9.07
2018-07-23T14:14:31.119Z,11.23
2018-07-23T14:16:59.383Z,10.07
2018-07-23T14:19:27.745Z,9.20
2018-07-23T14:21:56.047Z,10.37
2018-07-23T14:24:24.295Z,9.10
2018-07-23T14:26:52.652Z,9.80
2018-07-23T14:29:21.055Z,9.33
2018-07-23T14:31:49.667Z,9.73
2018-07-23T14:34:18.587Z,9.47
2018-07-23T14:36:46.894Z,9.20
2018-07-23T14:39:15.192Z,14.20
2018-07-23T14:41:43.617Z,8.83
2018-07-23T14:44:11.967Z,8.77
2018-07-23T14:46:40.594Z,10.03
2018-07-23T14:49:09.085Z,9.93
2018-07-23T14:51:37.924Z,9.90
2018-07-23T14:54:06.540Z,9.63
2018-07-23T14:56:35.166Z,10.13
2018-07-23T14:59:03.647Z,9.13
2018-07-23T15:01:32.451Z,9.57
2018-07-23T15:04:01.055Z,9.20
2018-07-23T15:06:29.488Z,9.10
2018-07-23T15:08:57.883Z,9.83
2018-07-23T15:11:26.159Z,9.83
2018-07-23T15:13:54.538Z,9.00
2018-07-23T15:16:23.028Z,9.33
2018-07-23T15:18:51.334Z,8.90
2018-07-23T15:21:19.728Z,7.97
2018-07-23T15:23:48.265Z,8.90
2018-07-23T15:26:16.662Z,8.37
2018-07-23T15:28:44.920Z,7.40
2018-07-23T15:31:13.292Z,7.20
2018-07-23T15:33:41.540Z,7.97
2018-07-23T15:36:10.045Z,8.47
2018-07-23T15:38:38.467Z,8.27
2018-07-23T15:41:06.665Z,8.07
2018-07-23T15:43:34.924Z,7.70
2018-07-23T15:46:03.269Z,8.20
2018-07-23T15:48:31.653Z,8.50
2018-07-23T15:51:00.139Z,8.03
2018-07-23T15:53:28.504Z,7.80
2018-07-23T15:55:56.864Z,7.30
2018-07-23T15:58:25.290Z,7.17
2018-07-23T16:00:53.704Z,7.10
2018-07-23T16:03:22.073Z,7.10
2018-07-23T16:05:50.485Z,8.67
2018-07-23T16:08:18.757Z,7.53
2018-07-23T16:10:47.134Z,7.40
2018-07-23T16:13:15.638Z,7.67
2018-07-23T16:15:43.924Z,7.53
2018-07-23T16:18:12.290Z,7.90
2018-07-23T16:20:40.531Z,8.90
2018-07-23T16:23:08.838Z,8.33
2018-07-23T16:25:37.379Z,8.10
2018-07-23T16:28:05.848Z,8.20
2018-07-23T16:30:34.207Z,7.90
2018-07-23T16:33:02.486Z,7.43
2018-07-23T16:35:30.744Z,8.03
2018-07-23T16:37:58.993Z,8.13
2018-07-23T16:40:27.423Z,7.50
2018-07-23T16:42:55.734Z,8.53
2018-07-23T16:45:24.170Z,7.97
2018-07-23T16:47:52.430Z,8.87
2018-07-23T16:50:20.776Z,8.00
2018-07-23T16:52:49.074Z,8.00
2018-07-23T16:55:17.317Z,9.00
2018-07-23T16:57:45.595Z,9.00
2018-07-23T17:00:13.973Z,8.03
2018-07-23T17:02:42.280Z,8.00
2018-07-23T17:05:10.597Z,8.40
2018-07-23T17:07:38.919Z,9.00
2018-07-23T17:10:07.331Z,9.00
2018-07-23T17:12:35.579Z,9.33
2018-07-23T17:15:03.922Z,9.93
2018-07-23T17:17:32.203Z,9.43
2018-07-23T17:20:00.671Z,8.70
2018-07-23T17:22:29.061Z,8.90
2018-07-23T17:24:57.587Z,7.40
2018-07-23T17:27:26.051Z,7.23
2018-07-23T17:29:54.376Z,8.47
2018-07-23T17:32:22.692Z,8.50
2018-07-23T17:34:51.120Z,8.50
2018-07-23T17:37:19.431Z,8.53
2018-07-23T17:39:47.743Z,9.47
2018-07-23T17:42:16.347Z,9.17
2018-07-23T17:44:44.702Z,8.80
2018-07-23T17:47:13.207Z,8.93
2018-07-23T17:49:41.612Z,9.17
2018-07-23T17:52:09.988Z,8.83
2018-07-23T17:54:38.317Z,8.80
2018-07-23T17:57:06.602Z,9.10
2018-07-23T17:59:34.854Z,8.30
2018-07-23T18:02:03.174Z,8.43
2018-07-23T18:04:31.771Z,9.17
2018-07-23T18:07:00.260Z,9.80
2018-07-23T18:09:28.608Z,9.70
2018-07-23T18:11:56.898Z,11.60
2018-07-23T18:14:25.152Z,13.37
2018-07-23T18:16:53.460Z,12.03
2018-07-23T18:19:21.852Z,12.70
2018-07-23T18:21:50.147Z,11.50
2018-07-23T18:24:18.492Z,13.03
2018-07-23T18:26:46.838Z,12.93
2018-07-23T18:29:15.113Z,11.90
2018-07-23T18:31:43.467Z,11.80
2018-07-23T18:34:11.873Z,13.90
2018-07-23T18:36:40.150Z,13.10
2018-07-23T18:39:10.095Z,13.00
2018-07-23T18:41:38.558Z,14.73
2018-07-23T18:44:07.098Z,14.43
2018-07-23T18:46:35.548Z,13.80
2018-07-23T18:49:25.318Z,14.17
2018-07-23T18:51:54.401Z,14.90
2018-07-23T18:54:24.236Z,14.70
2018-07-23T18:56:54.473Z,13.73
2018-07-23T18:59:22.775Z,13.67
2018-07-23T19:01:51.997Z,13.43
2018-07-23T19:04:20.495Z,14.73
2018-07-23T19:06:49.179Z,13.50
2018-07-23T19:09:18.709Z,14.00
2018-07-23T19:11:48.221Z,14.30
2018-07-23T19:14:16.967Z,15.87
2018-07-23T19:16:45.875Z,15.33
2018-07-23T19:19:14.239Z,16.07
2018-07-23T19:21:42.484Z,19.37
2018-07-23T19:24:11.059Z,19.20
2018-07-23T19:26:39.411Z,19.50
2018-07-23T19:29:07.767Z,17.73
2018-07-23T19:31:36.108Z,15.63
2018-07-23T19:34:05.024Z,14.53
2018-07-23T19:36:33.416Z,17.67
2018-07-23T19:39:01.831Z,14.90
2018-07-23T19:41:30.583Z,15.73
2018-07-23T19:43:59.081Z,13.47
2018-07-23T19:46:27.403Z,15.37
2018-07-23T19:48:55.879Z,14.83
2018-07-23T19:51:24.174Z,14.13
2018-07-23T19:53:52.487Z,14.47
2018-07-23T19:56:20.973Z,14.03
2018-07-23T19:58:49.375Z,15.20
2018-07-23T20:01:18.003Z,14.03
2018-07-23T20:03:46.477Z,14.17
2018-07-23T20:06:19.387Z,13.10
2018-07-23T20:08:48.469Z,13.90
2018-07-23T20:11:17.386Z,15.77
2018-07-23T20:13:45.795Z,17.63
2018-07-23T20:16:14.466Z,17.97
2018-07-23T20:18:42.931Z,16.83
2018-07-23T20:21:11.364Z,17.30
2018-07-23T20:23:39.876Z,18.13
2018-07-23T20:26:08.454Z,19.33
2018-07-23T20:28:37.308Z,18.47
2018-07-23T20:31:06.090Z,20.10
2018-07-23T20:33:34.515Z,19.23
2018-07-23T20:36:03.505Z,19.37
2018-07-23T20:38:31.743Z,18.83
2018-07-23T20:41:00.270Z,19.10
2018-07-23T20:43:29.445Z,21.33
2018-07-23T20:45:58.425Z,27.20
2018-07-23T20:48:26.803Z,25.63
2018-07-23T20:50:55.638Z,22.97
2018-07-23T20:53:23.919Z,21.90
2018-07-23T20:55:52.248Z,20.50
2018-07-23T20:58:20.583Z,21.57
2018-07-23T21:00:49.089Z,22.77
2018-07-23T21:03:17.593Z,23.67
2018-07-23T21:05:46.077Z,23.90
2018-07-23T21:08:14.437Z,24.50
2018-07-23T21:10:42.828Z,23.87
2018-07-23T21:13:11.268Z,21.20
2018-07-23T21:15:39.730Z,23.17
2018-07-23T21:18:08.403Z,22.97
2018-07-23T21:20:37.063Z,22.40
2018-07-23T21:23:05.596Z,22.57
2018-07-23T21:25:33.987Z,22.83
2018-07-23T21:28:02.364Z,23.13
2018-07-23T21:30:30.740Z,28.80
2018-07-23T21:32:59.364Z,25.10
2018-07-23T21:35:27.832Z,23.50
2018-07-23T21:37:56.287Z,19.90
2018-07-23T21:40:24.976Z,24.50
2018-07-23T21:42:56.025Z,25.43
2018-07-23T21:45:25.771Z,21.93
2018-07-23T21:47:55.826Z,22.07
2018-07-23T21:50:24.965Z,19.37
2018-07-23T21:52:53.378Z,18.60
2018-07-23T21:55:21.661Z,21.43
2018-07-23T21:57:49.918Z,20.50
2018-07-23T22:00:18.288Z,21.80
2018-07-23T22:02:46.770Z,21.60
2018-07-23T22:05:15.270Z,20.47
2018-07-23T22:07:44.008Z,21.20
2018-07-23T22:10:14.756Z,20.53
2018-07-23T22:12:43.054Z,21.53
2018-07-23T22:15:12.464Z,24.53
2018-07-23T22:17:42.209Z,22.27
2018-07-23T22:20:10.507Z,23.30
2018-07-23T22:22:41.003Z,23.13
2018-07-23T22:25:09.340Z,26.50
2018-07-23T22:27:37.621Z,23.10
2018-07-23T22:30:06.303Z,21.60
2018-07-23T22:32:34.624Z,21.93
2018-07-23T22:35:02.907Z,22.97
2018-07-23T22:37:31.161Z,22.33
2018-07-23T22:39:59.449Z,22.50
2018-07-23T22:42:29.398Z,24.70
2018-07-23T22:44:57.674Z,22.73
2018-07-23T22:47:25.893Z,23.10
2018-07-23T22:49:54.160Z,22.20
2018-07-23T22:52:22.449Z,23.60
2018-07-23T22:54:50.724Z,24.30
2018-07-23T22:57:19.024Z,22.33
2018-07-23T22:59:47.449Z,24.87
2018-07-23T23:02:15.719Z,24.60
2018-07-23T23:04:44.003Z,24.03
2018-07-23T23:07:12.289Z,23.17
2018-07-23T23:09:40.729Z,25.30
2018-07-23T23:12:09.046Z,24.93
2018-07-23T23:14:37.281Z,23.83
2018-07-23T23:17:05.586Z,24.90
2018-07-23T23:19:33.850Z,23.37
2018-07-23T23:22:02.240Z,25.27
2018-07-23T23:24:30.441Z,25.27
2018-07-23T23:26:58.834Z,24.10
2018-07-23T23:29:27.088Z,23.17
2018-07-23T23:31:55.323Z,25.37
2018-07-23T23:34:23.592Z,24.27
2018-07-23T23:36:51.913Z,24.77
2018-07-23T23:39:20.286Z,25.20
2018-07-23T23:41:48.608Z,26.83
2018-07-23T23:44:16.840Z,26.07
2018-07-23T23:46:45.130Z,26.00
2018-07-23T23:49:13.390Z,27.30
2018-07-23T23:51:41.662Z,27.27
2018-07-23T23:54:10.001Z,27.20
2018-07-23T23:56:38.270Z,35.90
2018-07-23T23:59:06.571Z,30.93
